Bellaire, MI

10:19 AM EDT on September 30, 2014 (GMT -0400)
Bellaire | Change Station
CLOSE
Current Station
Personal Weather Station
Location: Bellaire, MI
Elevation: 748 ft
Nearby Weather Stations

Elev 748 ft 44.91 °N, 85.24 °W | Updated 9 minutes ago

Overcast
Overcast
46.0 °F
Feels Like 46 °F
N
2.0
Wind Variable Wind from ENE
Gusts 6.0 mph

Today
High -- | Low -- °F
--% Chance of Precip.
Yesterday
High -- | Low -- °F
Precip. -- in
7:37 AM 7:23 PM
Waxing Crescent, 37% visible
Pressure 30.05 in
Visibility 10.0 miles
Clouds Overcast 1000 ft
Windchill 46 °F
Dew Point 43 °F
Humidity 90%
Rainfall 0.00 in
Snow Depth Not available.
UV 1 out of 12
Pollen 2.10 out of 12
Ozone Good
PM2.5 Good
Flu Activity Not available.
METAR KACB 301356Z AUTO 03005KT 10SM OVC010 08/06 A3005 RMK AO2 T00800061

More Conditions Fewer Conditions

Pressure 30.05 in
Visibility 10.0 miles
Clouds Overcast 1000 ft
Windchill 46 °F
Dew Point 43 °F
Humidity 90%
Rainfall 0.00 in
Snow Depth Not available.
UV 1 out of 12
Pollen 2.10 out of 12
Ozone Good
PM2.5 Good
Flu Activity Not available.
METAR KACB 301356Z AUTO 03005KT 10SM OVC010 08/06 A3005 RMK AO2 T00800061

More Conditions Fewer Conditions

Nowcast | as of 10:00 am EDT on September 30, 2014

At 11 am...cloudy. Periods of drizzle. Temperature 46. North winds 5 mph. At 1 PM...cloudy. Periods of drizzle. Temperature 50. North winds 5 mph. At 3 PM...cloudy. Temperature 53. Northeast winds 5 mph. At 5 PM...cloudy. Temperature 53. Northeast winds 5 mph.

×

10-Day Weather Forecast

Almanac

Astronomy

Sep. 30, 2014 Rise Set
Actual Time 7:37 AM EDT 7:23 PM EDT
Civil Twilight 7:08 AM EDT 7:52 PM EDT
Nautical Twilight 6:34 AM EDT 8:26 PM EDT
Astronomical Twilight 5:59 AM EDT 9:00 PM EDT
Moon 1:56 PM EDT 11:40 PM EDT
Length of Visible Light 12h 43m
Length of Day
11h 45m
Tomorrow will be 3m 7s shorter.
Waxing Crescent, 37% of the Moon is Illuminated
Today
Waxing Crescent
Oct 1
First Quarter
Oct 8
Full
Oct 15
Last Quarter
Oct 23
New

Today's Extremes

State Highs State Lows

Community

WunderPhotos

Upload Photos

1,757,643 photos uploaded!

Nearby

Air Quality

  Air Quality AQ Index Pollutant
Yesterday Good
OZONE
Yesterday Good
PM2.5
Current Good
OZONE
Current Good
PM2.5
Tuesday Good
OZONE
Tuesday Good
PM2.5
Wednesday Good
OZONE
Wednesday Good
PM2.5
Thursday Good
OZONE
Thursday Good
PM2.5
Friday Good
OZONE
Friday Good
PM2.5
Saturday Good
OZONE
Saturday Good
PM2.5

Snow Depth

Station Depth Elevation
No new snow has been reported.

Earthquake Activity

City Distance Mag. Time & Date
No recent earthquake activity has been reported nearby.
Minimum magnitude displayed is 2.5.

Coastal Water Temperatures

Place Temperature
Mackinaw City, MI 61.0 °F
Port Inland, MI 62.1 °F

Nearby Weather Stations